Erwinna, PA (18920)

11:57 PM EST on January 25, 2015 (GMT -0500)
Lambs Hollow/Kingwood | Change Station
CLOSE
Current Station
Personal Weather Station
Location: Frenchtown, NJ
Elevation: 213 ft
Nearby Weather Stations
Active Advisory: Winter Storm Warning

Elev 213 ft 40.51 °N, 75.04 °W | Updated 23 seconds ago

Overcast
Overcast
29.3 °F
Feels Like 29 °F
N
3.0
Wind Variable Wind from ENE
Gusts 9.0 mph

Today
High -- | Low -- °F
--% Chance of Precip.
Yesterday
High -- | Low -- °F
Precip. -- in
7:15 AM 5:09 PM
Waxing Crescent, 39% visible
Pressure 29.98 in
Visibility 10.0 miles
Clouds Overcast 3700 ft
Windchill 29 °F
Dew Point 16 °F
Humidity 56%
Rainfall 0.05 in
Snow Depth Not available.
UV 0 out of 12
Pollen .10 out of 12
Air Quality Not available.
Flu Activity Not available.
METAR KDYL 260354Z AUTO 03006KT 10SM OVC037 M02/M05 A2995 RMK AO2 SLP150 T10221050

More Conditions Fewer Conditions

Pressure 29.98 in
Visibility 10.0 miles
Clouds Overcast 3700 ft
Windchill 29 °F
Dew Point 16 °F
Humidity 56%
Rainfall 0.05 in
Snow Depth Not available.
UV 0 out of 12
Pollen .10 out of 12
Air Quality Not available.
Flu Activity Not available.
METAR KDYL 260354Z AUTO 03006KT 10SM OVC037 M02/M05 A2995 RMK AO2 SLP150 T10221050

More Conditions Fewer Conditions

Nowcast | as of 11:09 PM EST on January 25, 2015

Intermittent flurries are occurring late this evening from south central New Jersey westward through southeast Pennsylvania and even into the southern Poconos. A dusting to an inch of new snow is expected in much of this area by sunrise as temperatures continue steadily falling well below freezing. Icy stretches of Highway should be developing.

×

10-Day Weather Forecast

Almanac

Astronomy

Jan. 25, 2015 Rise Set
Actual Time
Civil Twilight
Nautical Twilight
Astronomical Twilight
Moon
Length of Visible Light
Length of Day
Tomorrow will be .
, % of the Moon is Illuminated

Today's Extremes

State Highs State Lows

Community

WunderPhotos

Upload Photos

1,790,139 photos uploaded!

WunderBlogs® & News

Nearby

Air Quality

  Air Quality AQ Index Pollutant
Not available.

Snow Depth

Station Depth Elevation

Earthquake Activity

City Distance Mag. Time & Date
Minimum magnitude displayed is 2.5.

Coastal Water Temperatures

Place Temperature

Nearby Weather Stations